Terminal Aerodrome Forecast
Issued by NWS

Home | Current Version | Previous Version | Text Only | Print | Product List | Glossary On
Versions: 1 2 3 4 5 6 7 8 9 10 11 12 13 14
784
FTUS43 KMQT 080134 AAA
TAFSAW
TAF AMD
KSAW 080134Z 0802/0824 20006KT 5SM -SN BR OVC035
      TEMPO 0802/0806 6SM BR BKN025
     FM080900 22005KT 3SM -SN BR OVC007
     FM081200 32005KT 2SM -SHSN OVC005
     FM081800 33011G16KT 2SM -SHSN OVC010=

USA.gov is the U.S. government's official web portal to all federal, state and local government web resources and services.